createdAt,value
2018-07-05T00:01:08.723Z,1.80
2018-07-05T00:03:48.657Z,1.60
2018-07-05T00:06:28.602Z,1.77
2018-07-05T00:09:08.404Z,1.50
2018-07-05T00:11:48.388Z,1.90
2018-07-05T00:14:28.532Z,1.80
2018-07-05T00:17:08.277Z,1.75
2018-07-05T00:19:48.198Z,1.80
2018-07-05T00:22:29.006Z,1.52
2018-07-05T00:25:09.126Z,1.75
2018-07-05T00:27:48.940Z,1.52
2018-07-05T00:30:28.795Z,1.65
2018-07-05T00:33:08.526Z,1.70
2018-07-05T00:35:48.350Z,1.80
2018-07-05T00:38:28.298Z,1.85
2018-07-05T00:41:08.376Z,1.80
2018-07-05T00:43:48.489Z,1.67
2018-07-05T00:46:28.361Z,1.75
2018-07-05T00:49:08.131Z,1.80
2018-07-05T00:51:47.974Z,1.67
2018-07-05T00:54:27.933Z,1.72
2018-07-05T00:57:07.949Z,1.70
2018-07-05T00:59:47.697Z,1.80
2018-07-05T01:02:27.676Z,1.85
2018-07-05T01:05:07.370Z,1.77
2018-07-05T01:07:47.740Z,1.65
2018-07-05T01:10:27.622Z,1.75
2018-07-05T01:13:07.474Z,1.70
2018-07-05T01:15:47.473Z,1.60
2018-07-05T01:18:27.220Z,1.50
2018-07-05T01:21:07.287Z,1.92
2018-07-05T01:23:47.138Z,1.80
2018-07-05T01:26:27.370Z,1.60
2018-07-05T01:29:07.651Z,1.70
2018-07-05T01:31:47.573Z,1.80
2018-07-05T01:34:27.598Z,1.70
2018-07-05T01:37:07.425Z,1.50
2018-07-05T01:39:42.121Z,1.70
2018-07-05T01:42:15.850Z,1.67
2018-07-05T01:44:55.803Z,1.70
2018-07-05T01:47:35.657Z,1.82
2018-07-05T01:50:15.759Z,1.65
2018-07-05T01:52:55.502Z,1.87
2018-07-05T01:55:35.375Z,1.50
2018-07-05T01:58:15.167Z,1.55
2018-07-05T02:00:55.018Z,1.80
2018-07-05T02:03:34.890Z,1.80
2018-07-05T02:06:14.723Z,1.62
2018-07-05T02:08:54.564Z,1.98
2018-07-05T02:11:28.397Z,2.10
2018-07-05T02:14:08.135Z,1.90
2018-07-05T02:16:48.057Z,1.80
2018-07-05T02:19:28.033Z,1.97
2018-07-05T02:22:08.097Z,2.10
2018-07-05T02:24:48.882Z,2.10
2018-07-05T02:27:28.786Z,2.20
2018-07-05T02:30:08.741Z,2.33
2018-07-05T02:32:48.727Z,2.10
2018-07-05T02:35:28.775Z,1.90
2018-07-05T02:38:14.156Z,1.95
2018-07-05T02:40:54.042Z,1.90
2018-07-05T02:43:34.737Z,1.98
2018-07-05T02:46:14.579Z,2.10
2018-07-05T02:48:54.514Z,2.10
2018-07-05T02:51:34.322Z,1.98
2018-07-05T02:54:14.372Z,2.10
2018-07-05T02:56:54.388Z,2.22
2018-07-05T02:59:34.352Z,1.98
2018-07-05T03:02:14.415Z,2.20
2018-07-05T03:04:54.293Z,2.10
2018-07-05T03:07:34.521Z,2.30
2018-07-05T03:10:14.505Z,2.20
2018-07-05T03:12:54.806Z,2.37
2018-07-05T03:15:35.283Z,2.17
2018-07-05T03:18:15.147Z,2.40
2018-07-05T03:20:55.421Z,2.00
2018-07-05T03:23:35.309Z,2.08
2018-07-05T03:26:15.204Z,2.20
2018-07-05T03:28:55.354Z,2.30
2018-07-05T03:31:35.233Z,2.30
2018-07-05T03:34:15.132Z,2.40
2018-07-05T03:36:55.131Z,2.05
2018-07-05T03:39:35.030Z,2.22
2018-07-05T03:42:15.605Z,2.10
2018-07-05T03:44:55.286Z,2.08
2018-07-05T03:47:35.159Z,2.33
2018-07-05T03:50:15.089Z,2.10
2018-07-05T03:52:55.071Z,2.40
2018-07-05T03:55:35.335Z,2.30
2018-07-05T03:58:15.201Z,2.60
2018-07-05T04:00:55.178Z,2.08
2018-07-05T04:03:35.234Z,2.27
2018-07-05T04:06:15.323Z,2.33
2018-07-05T04:08:55.845Z,2.20
2018-07-05T04:11:35.818Z,2.20
2018-07-05T04:14:16.612Z,2.30
2018-07-05T04:16:56.375Z,2.30
2018-07-05T04:19:40.794Z,2.40
2018-07-05T04:22:21.152Z,2.50
2018-07-05T04:25:01.035Z,2.25
2018-07-05T04:27:40.927Z,2.60
2018-07-05T04:30:20.979Z,2.70
2018-07-05T04:33:02.218Z,2.62
2018-07-05T04:35:42.120Z,2.40
2018-07-05T04:38:15.934Z,2.20
2018-07-05T04:40:55.882Z,2.60
2018-07-05T04:43:35.779Z,2.60
2018-07-05T04:46:16.759Z,2.22
2018-07-05T04:48:56.650Z,2.33
2018-07-05T04:51:37.257Z,2.42
2018-07-05T04:54:17.194Z,2.47
2018-07-05T04:56:57.492Z,2.50
2018-07-05T04:59:37.326Z,2.58
2018-07-05T05:02:17.569Z,2.30
2018-07-05T05:04:57.572Z,2.30
2018-07-05T05:07:37.390Z,2.30
2018-07-05T05:10:11.250Z,2.60
2018-07-05T05:12:51.611Z,2.50
2018-07-05T05:15:31.461Z,2.60
2018-07-05T05:18:11.193Z,2.47
2018-07-05T05:20:51.256Z,2.52
2018-07-05T05:23:31.220Z,2.40
2018-07-05T05:26:11.018Z,2.55
2018-07-05T05:28:51.035Z,2.37
2018-07-05T05:31:30.947Z,2.60
2018-07-05T05:34:10.668Z,2.05
2018-07-05T05:36:50.555Z,2.40
2018-07-05T05:39:34.323Z,2.60
2018-07-05T05:42:09.714Z,2.30
2018-07-05T05:44:49.594Z,2.22
2018-07-05T05:47:29.484Z,2.30
2018-07-05T05:50:09.302Z,2.60
2018-07-05T05:52:49.131Z,2.00
2018-07-05T05:55:28.831Z,2.20
2018-07-05T05:58:08.709Z,2.10
2018-07-05T06:00:48.446Z,2.23
2018-07-05T06:03:28.341Z,2.15
2018-07-05T06:06:08.234Z,2.10
2018-07-05T06:08:48.160Z,2.00
2018-07-05T06:11:28.029Z,2.15
2018-07-05T06:14:07.882Z,2.10
2018-07-05T06:16:47.830Z,2.10
2018-07-05T06:19:27.656Z,1.87
2018-07-05T06:22:07.517Z,2.20
2018-07-05T06:24:47.534Z,1.90
2018-07-05T06:27:27.480Z,1.90
2018-07-05T06:30:07.899Z,1.55
2018-07-05T06:32:48.111Z,1.80
2018-07-05T06:35:28.984Z,1.60
2018-07-05T06:38:09.568Z,1.70
2018-07-05T06:40:49.860Z,1.90
2018-07-05T06:43:29.807Z,1.60
2018-07-05T06:46:09.658Z,1.70
2018-07-05T06:48:49.448Z,1.60
2018-07-05T06:51:29.491Z,1.52
2018-07-05T06:54:09.405Z,1.53
2018-07-05T06:56:49.398Z,1.50
2018-07-05T06:59:29.224Z,1.33
2018-07-05T07:02:09.096Z,1.35
2018-07-05T07:04:49.308Z,1.70
2018-07-05T07:07:29.259Z,1.50
2018-07-05T07:10:09.131Z,1.30
2018-07-05T07:12:48.899Z,1.42
2018-07-05T07:15:28.934Z,1.55
2018-07-05T07:18:02.660Z,1.57
2018-07-05T07:20:42.751Z,1.40
2018-07-05T07:23:22.458Z,1.40
2018-07-05T07:26:02.386Z,1.20
2018-07-05T07:28:42.320Z,1.30
2018-07-05T07:31:22.331Z,1.13
2018-07-05T07:34:02.099Z,1.10
2018-07-05T07:36:42.208Z,1.10
2018-07-05T07:39:22.872Z,1.00
2018-07-05T07:41:51.503Z,1.17
2018-07-05T07:44:20.472Z,1.07
2018-07-05T07:46:48.611Z,1.20
2018-07-05T07:49:19.807Z,0.90
2018-07-05T07:51:47.297Z,0.90
2018-07-05T07:54:14.759Z,1.12
2018-07-05T07:56:42.222Z,1.00
2018-07-05T07:59:09.706Z,1.10
2018-07-05T08:01:37.131Z,0.90
2018-07-05T08:04:04.658Z,0.90
2018-07-05T08:06:32.139Z,0.80
2018-07-05T08:08:59.703Z,0.80
2018-07-05T08:11:27.209Z,0.80
2018-07-05T08:13:54.712Z,0.90
2018-07-05T08:16:22.251Z,1.07
2018-07-05T08:18:49.711Z,0.82
2018-07-05T08:21:17.160Z,1.07
2018-07-05T08:23:44.621Z,0.90
2018-07-05T08:26:12.050Z,0.87
2018-07-05T08:28:39.555Z,1.10
2018-07-05T08:31:07.016Z,0.88
2018-07-05T08:33:34.481Z,0.85
2018-07-05T08:36:01.975Z,0.80
2018-07-05T08:38:29.413Z,0.90
2018-07-05T08:40:56.860Z,0.85
2018-07-05T08:43:24.319Z,1.00
2018-07-05T08:45:51.808Z,1.05
2018-07-05T08:48:19.314Z,1.02
2018-07-05T08:50:46.772Z,0.82
2018-07-05T08:53:14.566Z,0.98
2018-07-05T08:55:42.044Z,0.93
2018-07-05T08:58:09.553Z,0.90
2018-07-05T09:00:37.026Z,0.80
2018-07-05T09:03:04.512Z,0.80
2018-07-05T09:05:31.977Z,0.85
2018-07-05T09:07:59.454Z,0.90
2018-07-05T09:10:26.956Z,0.90
2018-07-05T09:12:54.493Z,0.90
2018-07-05T09:15:21.926Z,0.90
2018-07-05T09:17:49.608Z,0.90
2018-07-05T09:20:17.439Z,0.72
2018-07-05T09:22:45.024Z,0.90
2018-07-05T09:25:12.495Z,0.82
2018-07-05T09:27:41.523Z,0.90
2018-07-05T09:30:09.056Z,0.80
2018-07-05T09:32:36.493Z,0.90
2018-07-05T09:35:04.167Z,0.70
2018-07-05T09:37:31.715Z,0.85
2018-07-05T09:39:59.240Z,0.75
2018-07-05T09:42:26.768Z,0.90
2018-07-05T09:44:54.251Z,0.85
2018-07-05T09:47:24.473Z,0.90
2018-07-05T09:49:52.000Z,0.80
2018-07-05T09:52:19.571Z,0.88
2018-07-05T09:54:48.135Z,0.98
2018-07-05T09:57:15.571Z,0.90
2018-07-05T09:59:43.107Z,0.85
2018-07-05T10:02:10.595Z,0.72
2018-07-05T10:04:38.086Z,1.20
2018-07-05T10:07:05.672Z,1.00
2018-07-05T10:09:33.188Z,1.05
2018-07-05T10:12:00.776Z,0.80
2018-07-05T10:14:28.309Z,0.90
2018-07-05T10:16:55.773Z,1.17
2018-07-05T10:19:23.297Z,0.80
2018-07-05T10:21:50.792Z,1.00
2018-07-05T10:24:18.569Z,0.88
2018-07-05T10:26:46.498Z,1.20
2018-07-05T10:29:26.287Z,0.80
2018-07-05T10:32:06.234Z,0.80
2018-07-05T10:34:33.748Z,1.00
2018-07-05T10:37:01.899Z,0.78
2018-07-05T10:39:29.337Z,0.70
2018-07-05T10:42:09.062Z,0.80
2018-07-05T10:44:48.966Z,0.70
2018-07-05T10:47:28.844Z,0.80
2018-07-05T10:50:08.546Z,1.02
2018-07-05T10:52:48.637Z,0.90
2018-07-05T10:55:28.561Z,1.00
2018-07-05T10:58:08.459Z,0.93
2018-07-05T11:00:48.427Z,0.88
2018-07-05T11:03:28.318Z,0.90
2018-07-05T11:06:08.037Z,0.90
2018-07-05T11:08:47.926Z,1.10
2018-07-05T11:11:27.652Z,1.12
2018-07-05T11:14:07.654Z,1.00
2018-07-05T11:16:47.761Z,0.80
2018-07-05T11:19:27.833Z,0.75
2018-07-05T11:22:07.651Z,1.00
2018-07-05T11:24:47.398Z,0.90
2018-07-05T11:27:27.247Z,1.10
2018-07-05T11:30:08.248Z,0.93
2018-07-05T11:32:48.248Z,0.90
2018-07-05T11:35:28.018Z,0.90
2018-07-05T11:38:07.906Z,0.90
2018-07-05T11:40:47.763Z,0.78
2018-07-05T11:43:27.948Z,1.00
2018-07-05T11:46:07.856Z,1.07
2018-07-05T11:48:47.625Z,1.12
2018-07-05T11:51:28.614Z,1.00
2018-07-05T11:54:08.318Z,0.70
2018-07-05T11:56:48.187Z,1.00
2018-07-05T11:59:28.165Z,1.00
2018-07-05T12:02:08.037Z,1.20
2018-07-05T12:04:48.422Z,1.00
2018-07-05T12:07:28.457Z,0.90
2018-07-05T12:10:08.579Z,1.30
2018-07-05T12:12:48.520Z,1.00
2018-07-05T12:15:28.367Z,0.90
2018-07-05T12:18:09.003Z,0.97
2018-07-05T12:20:48.881Z,1.00
2018-07-05T12:23:28.770Z,1.07
2018-07-05T12:26:08.782Z,1.17
2018-07-05T12:28:48.561Z,1.00
2018-07-05T12:31:28.425Z,1.00
2018-07-05T12:34:08.605Z,1.15
2018-07-05T12:36:48.377Z,1.10
2018-07-05T12:39:28.204Z,0.70
2018-07-05T12:42:08.130Z,1.00
2018-07-05T12:44:48.019Z,1.07
2018-07-05T12:47:27.967Z,0.88
2018-07-05T12:50:07.990Z,0.90
2018-07-05T12:52:47.692Z,0.90
2018-07-05T12:55:27.481Z,1.00
2018-07-05T12:58:07.351Z,0.95
2018-07-05T13:00:47.251Z,1.00
2018-07-05T13:03:27.171Z,1.10
2018-07-05T13:06:07.140Z,0.90
2018-07-05T13:08:47.175Z,0.90
2018-07-05T13:11:27.023Z,0.90
2018-07-05T13:14:07.085Z,1.00
2018-07-05T13:16:47.176Z,1.10
2018-07-05T13:19:28.082Z,1.00
2018-07-05T13:22:08.008Z,1.10
2018-07-05T13:24:47.854Z,0.97
2018-07-05T13:27:27.643Z,0.90
2018-07-05T13:30:07.440Z,0.90
2018-07-05T13:32:47.435Z,1.00
2018-07-05T13:35:27.066Z,1.00
2018-07-05T13:38:06.824Z,1.00
2018-07-05T13:40:46.892Z,0.93
2018-07-05T13:43:26.606Z,0.95
2018-07-05T13:46:00.617Z,1.00
2018-07-05T13:48:40.395Z,1.02
2018-07-05T13:51:20.278Z,1.05
2018-07-05T13:53:59.959Z,0.90
2018-07-05T13:56:39.883Z,1.07
2018-07-05T13:59:19.624Z,1.30
2018-07-05T14:02:00.546Z,1.25
2018-07-05T14:04:41.389Z,1.30
2018-07-05T14:07:21.772Z,1.30
2018-07-05T14:10:01.730Z,1.17
2018-07-05T14:12:41.754Z,1.00
2018-07-05T14:15:21.711Z,1.00
2018-07-05T14:18:01.808Z,0.90
2018-07-05T14:20:41.742Z,0.95
2018-07-05T14:23:22.030Z,1.10
2018-07-05T14:26:02.088Z,1.20
2018-07-05T14:28:41.832Z,1.10
2018-07-05T14:31:22.453Z,1.10
2018-07-05T14:34:02.494Z,1.10
2018-07-05T14:36:42.193Z,1.10
2018-07-05T14:39:22.089Z,1.00
2018-07-05T14:42:01.886Z,1.20
2018-07-05T14:44:41.717Z,1.10
2018-07-05T14:47:22.049Z,1.00
2018-07-05T14:50:02.076Z,1.42
2018-07-05T14:52:41.786Z,1.10
2018-07-05T14:55:21.608Z,1.00
2018-07-05T15:01:11.935Z,1.00
2018-07-05T15:03:51.783Z,1.07
2018-07-05T15:06:31.800Z,1.00
2018-07-05T15:09:11.541Z,1.00
2018-07-05T15:11:52.594Z,1.13
2018-07-05T15:14:32.645Z,1.10
2018-07-05T15:17:12.762Z,1.03
2018-07-05T15:19:52.472Z,1.10
2018-07-05T15:22:32.654Z,0.98
2018-07-05T15:25:13.007Z,1.00
2018-07-05T15:27:52.950Z,1.00
2018-07-05T15:30:32.994Z,1.13
2018-07-05T15:33:13.062Z,1.17
2018-07-05T15:35:53.035Z,1.00
2018-07-05T15:38:32.981Z,1.02
2018-07-05T15:41:13.241Z,1.10
2018-07-05T15:43:53.161Z,0.97
2018-07-05T15:46:33.129Z,0.80
2018-07-05T15:49:13.064Z,0.90
2018-07-05T15:51:53.054Z,1.05
2018-07-05T15:54:33.300Z,1.10
2018-07-05T15:57:13.353Z,1.10
2018-07-05T15:59:53.656Z,0.98
2018-07-05T16:02:33.660Z,1.10
2018-07-05T16:05:13.507Z,1.00
2018-07-05T16:07:53.526Z,1.10
2018-07-05T16:10:33.554Z,1.17
2018-07-05T16:13:13.400Z,1.10
2018-07-05T16:15:53.160Z,1.05
2018-07-05T16:18:33.096Z,1.00
2018-07-05T16:21:12.864Z,1.15
2018-07-05T16:23:52.706Z,1.00
2018-07-05T16:26:32.670Z,1.00
2018-07-05T16:29:12.577Z,1.30
2018-07-05T16:31:53.848Z,1.10
2018-07-05T16:34:33.843Z,1.10
2018-07-05T16:37:13.557Z,1.00
2018-07-05T16:39:53.356Z,0.90
2018-07-05T16:42:33.249Z,1.12
2018-07-05T16:45:13.073Z,0.90
2018-07-05T16:47:53.653Z,0.90
2018-07-05T16:50:35.940Z,1.10
2018-07-05T16:53:16.627Z,1.10
2018-07-05T16:55:57.136Z,0.80
2018-07-05T16:58:37.085Z,0.90
2018-07-05T17:01:18.688Z,1.00
2018-07-05T17:03:58.456Z,0.90
2018-07-05T17:06:38.342Z,0.88
2018-07-05T17:09:18.017Z,0.90
2018-07-05T17:11:58.867Z,0.90
2018-07-05T17:14:38.852Z,0.80
2018-07-05T17:17:18.951Z,0.78
2018-07-05T17:19:59.096Z,0.90
2018-07-05T17:22:39.218Z,0.70
2018-07-05T17:25:19.246Z,0.65
2018-07-05T17:27:59.210Z,0.85
2018-07-05T17:30:39.127Z,0.90
2018-07-05T17:33:19.094Z,1.47
2018-07-05T17:35:59.346Z,1.22
2018-07-05T17:38:39.154Z,1.00
2018-07-05T17:41:20.583Z,1.90
2018-07-05T17:44:00.510Z,1.50
2018-07-05T17:46:40.490Z,1.00
2018-07-05T17:49:20.649Z,0.90
2018-07-05T17:52:00.611Z,0.80
2018-07-05T17:54:40.510Z,0.80
2018-07-05T17:57:20.884Z,0.80
2018-07-05T18:00:01.447Z,0.80
2018-07-05T18:02:41.342Z,0.70
2018-07-05T18:05:21.821Z,0.70
2018-07-05T18:07:56.513Z,0.62
2018-07-05T18:10:36.507Z,0.80
2018-07-05T18:13:16.368Z,0.68
2018-07-05T18:15:56.360Z,0.60
2018-07-05T18:18:36.280Z,0.80
2018-07-05T18:21:16.164Z,0.70
2018-07-05T18:23:56.014Z,0.90
2018-07-05T18:26:36.485Z,0.78
2018-07-05T18:29:16.322Z,0.70
2018-07-05T18:31:56.244Z,0.85
2018-07-05T18:34:36.611Z,0.80
2018-07-05T18:37:16.452Z,0.72
2018-07-05T18:39:56.534Z,0.93
2018-07-05T18:42:36.347Z,0.90
2018-07-05T18:45:16.752Z,0.78
2018-07-05T18:47:56.727Z,0.68
2018-07-05T18:50:36.849Z,0.80
2018-07-05T18:53:16.925Z,0.65
2018-07-05T18:55:56.832Z,0.63
2018-07-05T18:58:36.890Z,0.70
2018-07-05T19:01:16.577Z,0.70
2018-07-05T19:03:56.862Z,0.80
2018-07-05T19:06:36.744Z,0.70
2018-07-05T19:09:16.794Z,0.70
2018-07-05T19:11:56.572Z,0.80
2018-07-05T19:14:37.626Z,0.80
2018-07-05T19:17:17.461Z,0.80
2018-07-05T19:19:57.219Z,0.80
2018-07-05T19:22:37.124Z,0.70
2018-07-05T19:25:17.175Z,0.80
2018-07-05T19:27:57.040Z,1.00
2018-07-05T19:30:36.923Z,0.80
2018-07-05T19:33:16.954Z,0.90
2018-07-05T19:35:50.825Z,0.80
2018-07-05T19:38:31.001Z,1.00
2018-07-05T19:41:11.205Z,0.80
2018-07-05T19:43:51.100Z,1.00
2018-07-05T19:46:31.002Z,0.90
2018-07-05T19:49:10.743Z,1.05
2018-07-05T19:51:50.733Z,0.80
2018-07-05T19:54:31.181Z,0.90
2018-07-05T19:57:13.556Z,0.88
2018-07-05T19:59:53.439Z,0.90
2018-07-05T20:02:33.306Z,1.00
2018-07-05T20:05:13.208Z,0.88
2018-07-05T20:07:52.959Z,1.15
2018-07-05T20:10:33.004Z,1.10
2018-07-05T20:13:13.039Z,1.00
2018-07-05T20:15:52.863Z,1.00
2018-07-05T20:18:32.922Z,1.00
2018-07-05T20:21:13.020Z,1.10
2018-07-05T20:23:52.969Z,1.05
2018-07-05T20:26:32.879Z,1.20
2018-07-05T20:29:12.692Z,1.05
2018-07-05T20:31:52.552Z,1.02
2018-07-05T20:34:32.396Z,1.02
2018-07-05T20:37:12.241Z,1.15
2018-07-05T20:39:52.336Z,0.90
2018-07-05T20:42:32.276Z,1.10
2018-07-05T20:45:12.689Z,1.02
2018-07-05T20:47:52.573Z,0.90
2018-07-05T20:50:33.159Z,1.00
2018-07-05T20:53:12.954Z,1.05
2018-07-05T20:55:52.794Z,1.15
2018-07-05T20:58:33.581Z,1.10
2018-07-05T21:01:14.102Z,1.20
2018-07-05T21:03:54.662Z,1.40
2018-07-05T21:06:34.373Z,1.15
2018-07-05T21:09:14.391Z,1.25
2018-07-05T21:11:54.480Z,1.30
2018-07-05T21:14:34.797Z,1.35
2018-07-05T21:17:08.742Z,1.12
2018-07-05T21:19:49.124Z,1.30
2018-07-05T21:22:29.395Z,1.20
2018-07-05T21:25:09.429Z,1.37
2018-07-05T21:27:49.660Z,1.30
2018-07-05T21:30:29.675Z,1.32
2018-07-05T21:33:09.555Z,1.25
2018-07-05T21:35:49.606Z,1.60
2018-07-05T21:38:29.476Z,1.47
2018-07-05T21:41:09.435Z,1.55
2018-07-05T21:43:49.354Z,1.43
2018-07-05T21:46:29.826Z,1.40
2018-07-05T21:49:09.647Z,1.40
2018-07-05T21:51:49.644Z,1.50
2018-07-05T21:54:29.596Z,1.30
2018-07-05T21:57:09.442Z,1.30
2018-07-05T21:59:49.631Z,1.60
2018-07-05T22:02:29.884Z,1.45
2018-07-05T22:05:13.492Z,1.40
2018-07-05T22:07:54.769Z,1.50
2018-07-05T22:10:34.639Z,1.30
2018-07-05T22:13:14.593Z,1.37
2018-07-05T22:15:54.581Z,1.30
2018-07-05T22:18:39.810Z,1.47
2018-07-05T22:21:20.623Z,1.20
2018-07-05T22:24:06.003Z,1.50
2018-07-05T22:26:47.206Z,1.32
2018-07-05T22:29:32.626Z,1.50
2018-07-05T22:32:12.580Z,1.42
2018-07-05T22:34:52.551Z,1.62
2018-07-05T22:37:32.545Z,1.50
2018-07-05T22:40:13.578Z,1.40
2018-07-05T22:42:53.864Z,1.40
2018-07-05T22:45:34.004Z,1.62
2018-07-05T22:48:14.295Z,1.45
2018-07-05T22:50:54.131Z,1.40
2018-07-05T22:53:34.045Z,1.40
2018-07-05T22:56:14.506Z,1.30
2018-07-05T22:58:54.431Z,1.20
2018-07-05T23:01:34.372Z,1.30
2018-07-05T23:04:14.381Z,1.40
2018-07-05T23:06:54.273Z,1.27
2018-07-05T23:09:34.252Z,1.30
2018-07-05T23:12:13.997Z,1.20
2018-07-05T23:14:53.843Z,1.40
2018-07-05T23:17:34.312Z,1.40
2018-07-05T23:20:14.158Z,1.40
2018-07-05T23:22:54.193Z,1.10
2018-07-05T23:25:34.417Z,1.20
2018-07-05T23:28:14.335Z,1.30
2018-07-05T23:30:54.199Z,1.10
2018-07-05T23:33:28.033Z,1.20
2018-07-05T23:36:07.889Z,1.17
2018-07-05T23:38:48.127Z,1.20
2018-07-05T23:41:28.133Z,1.27
2018-07-05T23:44:07.775Z,1.40
2018-07-05T23:46:47.701Z,1.30
2018-07-05T23:49:27.626Z,1.30
2018-07-05T23:52:07.544Z,1.27
2018-07-05T23:54:47.635Z,1.20
2018-07-05T23:57:28.200Z,1.20
